createdAt,value
2023-03-27T00:02:28.839Z,10.82
2023-03-27T00:04:56.790Z,6.93
2023-03-27T00:07:24.648Z,8.77
2023-03-27T00:09:53.410Z,9.52
2023-03-27T00:12:21.266Z,7.50
2023-03-27T00:14:50.473Z,7.18
2023-03-27T00:17:19.265Z,7.93
2023-03-27T00:19:47.102Z,11.80
2023-03-27T00:22:14.899Z,11.73
2023-03-27T00:24:42.697Z,7.28
2023-03-27T00:27:10.481Z,12.50
2023-03-27T00:29:39.681Z,11.45
2023-03-27T00:32:09.175Z,9.15
2023-03-27T00:34:37.585Z,19.35
2023-03-27T00:37:05.735Z,5.38
2023-03-27T00:39:33.942Z,11.80
2023-03-27T00:42:01.746Z,9.57
2023-03-27T00:44:34.347Z,9.93
2023-03-27T00:47:05.575Z,10.63
2023-03-27T00:49:37.982Z,7.07
2023-03-27T00:52:07.183Z,12.80
2023-03-27T00:54:40.056Z,10.88
2023-03-27T00:57:11.248Z,10.50
2023-03-27T00:59:43.268Z,15.70
2023-03-27T01:02:11.568Z,7.88
2023-03-27T01:04:44.012Z,8.65
2023-03-27T01:07:12.768Z,11.45
2023-03-27T01:09:41.229Z,9.30
2023-03-27T01:12:26.466Z,11.80
2023-03-27T01:15:09.835Z,9.85
2023-03-27T01:17:56.513Z,12.07
2023-03-27T01:21:12.273Z,12.98
2023-03-27T01:24:23.079Z,7.88
2023-03-27T01:27:03.831Z,10.07
2023-03-27T01:29:46.151Z,10.20
2023-03-27T01:32:42.221Z,8.98
2023-03-27T01:35:29.441Z,9.25
2023-03-27T01:38:17.081Z,10.68
2023-03-27T01:40:51.541Z,11.93
2023-03-27T01:43:27.040Z,11.23
2023-03-27T01:45:59.527Z,12.63
2023-03-27T01:48:32.970Z,11.98
2023-03-27T01:51:06.601Z,10.82
2023-03-27T01:53:39.770Z,9.43
2023-03-27T01:56:18.301Z,11.07
2023-03-27T01:58:50.217Z,6.00
2023-03-27T02:01:24.962Z,14.27
2023-03-27T02:03:57.120Z,9.73
2023-03-27T02:06:28.716Z,9.52
2023-03-27T02:09:01.037Z,10.25
2023-03-27T02:11:37.563Z,12.80
2023-03-27T02:14:08.757Z,8.32
2023-03-27T02:16:46.316Z,11.77
2023-03-27T02:19:22.192Z,7.40
2023-03-27T02:24:18.917Z,10.05
2023-03-27T02:26:53.061Z,10.13
2023-03-27T02:29:38.090Z,14.48
2023-03-27T02:32:21.037Z,7.03
2023-03-27T02:35:12.565Z,8.75
2023-03-27T02:37:52.369Z,7.85
2023-03-27T02:40:44.754Z,11.38
2023-03-27T02:43:35.935Z,13.05
2023-03-27T02:46:12.852Z,7.00
2023-03-27T02:48:46.513Z,10.20
2023-03-27T02:51:19.066Z,10.10
2023-03-27T02:53:52.121Z,10.10
2023-03-27T02:56:24.042Z,12.00
2023-03-27T02:58:59.885Z,14.88
2023-03-27T03:04:26.606Z,8.10
2023-03-27T03:07:16.104Z,11.18
2023-03-27T03:09:45.082Z,12.10
2023-03-27T03:12:12.943Z,12.88
2023-03-27T03:14:46.510Z,12.80
2023-03-27T03:17:16.598Z,13.43
2023-03-27T03:19:46.275Z,6.80
2023-03-27T03:22:14.661Z,11.20
2023-03-27T03:24:43.703Z,9.88
2023-03-27T03:27:14.873Z,9.15
2023-03-27T03:29:57.803Z,7.43
2023-03-27T03:32:30.232Z,9.55
2023-03-27T03:34:58.656Z,12.35
2023-03-27T03:37:28.633Z,4.57
2023-03-27T03:39:58.052Z,6.65
2023-03-27T03:42:25.897Z,11.73
2023-03-27T03:44:54.096Z,6.15
2023-03-27T03:47:24.960Z,10.43
2023-03-27T03:49:52.758Z,6.15
2023-03-27T03:52:21.056Z,14.02
2023-03-27T03:54:49.071Z,7.75
2023-03-27T03:57:17.477Z,7.70
2023-03-27T03:59:54.378Z,14.07
2023-03-27T04:02:46.407Z,12.70
2023-03-27T04:05:17.661Z,11.55
2023-03-27T04:07:46.039Z,11.35
2023-03-27T04:10:26.739Z,10.95
2023-03-27T04:12:54.983Z,11.30
2023-03-27T04:15:29.376Z,15.40
2023-03-27T04:18:35.033Z,10.43
2023-03-27T04:21:14.200Z,11.13
2023-03-27T04:23:42.846Z,8.60
2023-03-27T04:26:12.967Z,8.40
2023-03-27T04:28:59.516Z,8.07
2023-03-27T04:31:51.025Z,11.40
2023-03-27T04:34:43.477Z,11.32
2023-03-27T04:37:45.348Z,7.38
2023-03-27T04:40:32.433Z,8.82
2023-03-27T04:43:01.181Z,10.82
2023-03-27T04:45:30.089Z,8.35
2023-03-27T04:47:58.144Z,7.88
2023-03-27T04:50:27.372Z,12.85
2023-03-27T04:52:58.729Z,10.95
2023-03-27T04:55:30.483Z,11.00
2023-03-27T04:58:00.087Z,8.77
2023-03-27T05:00:27.970Z,11.20
2023-03-27T05:03:16.244Z,9.98
2023-03-27T05:05:59.383Z,11.77
2023-03-27T05:08:27.285Z,13.43
2023-03-27T05:10:56.612Z,8.73
2023-03-27T05:13:24.710Z,13.50
2023-03-27T05:15:52.542Z,9.57
2023-03-27T05:18:22.969Z,9.13
2023-03-27T05:20:53.302Z,12.65
2023-03-27T05:23:22.580Z,9.77
2023-03-27T05:25:59.770Z,6.05
2023-03-27T05:28:37.162Z,15.75
2023-03-27T05:31:05.346Z,13.07
2023-03-27T05:33:41.806Z,7.53
2023-03-27T05:36:11.206Z,5.50
2023-03-27T05:38:44.348Z,11.93
2023-03-27T05:41:30.825Z,11.57
2023-03-27T05:43:58.764Z,11.25
2023-03-27T05:46:27.133Z,7.47
2023-03-27T05:49:08.840Z,8.60
2023-03-27T05:51:36.647Z,6.75
2023-03-27T05:54:06.233Z,16.48
2023-03-27T05:56:38.678Z,15.20
2023-03-27T05:59:06.934Z,12.45
2023-03-27T06:01:36.846Z,11.07
2023-03-27T06:04:04.903Z,11.73
2023-03-27T06:06:51.245Z,10.25
2023-03-27T06:09:20.568Z,13.20
2023-03-27T06:12:07.477Z,6.13
2023-03-27T06:14:39.433Z,8.75
2023-03-27T06:17:29.905Z,10.57
2023-03-27T06:20:12.355Z,11.00
2023-03-27T06:22:45.192Z,15.80
2023-03-27T06:25:16.279Z,11.18
2023-03-27T06:27:45.380Z,11.75
2023-03-27T06:30:14.876Z,7.50
2023-03-27T06:32:51.314Z,5.90
2023-03-27T06:35:20.272Z,6.70
2023-03-27T06:37:56.525Z,6.40
2023-03-27T06:40:28.340Z,8.50
2023-03-27T06:43:01.848Z,18.23
2023-03-27T06:48:24.431Z,9.20
2023-03-27T06:50:56.801Z,6.68
2023-03-27T06:53:27.972Z,6.47
2023-03-27T06:55:59.035Z,10.55
2023-03-27T06:58:29.781Z,9.35
2023-03-27T07:00:58.004Z,11.65
2023-03-27T07:03:46.005Z,7.13
2023-03-27T07:06:32.516Z,8.43
2023-03-27T07:09:07.908Z,7.97
2023-03-27T07:11:37.157Z,8.13
2023-03-27T07:14:09.445Z,10.88
2023-03-27T07:16:38.240Z,7.47
2023-03-27T07:19:06.527Z,9.38
2023-03-27T07:21:37.760Z,8.15
2023-03-27T07:24:06.500Z,9.98
2023-03-27T07:26:39.238Z,13.60
2023-03-27T07:29:33.161Z,6.88
2023-03-27T07:32:06.295Z,7.55
2023-03-27T07:34:50.384Z,4.57
2023-03-27T07:37:42.710Z,8.00
2023-03-27T07:40:37.307Z,4.70
2023-03-27T07:43:38.511Z,7.22
2023-03-27T07:46:07.780Z,7.53
2023-03-27T07:48:36.461Z,3.25
2023-03-27T07:51:13.369Z,9.70
2023-03-27T07:53:43.572Z,6.90
2023-03-27T07:56:23.313Z,5.25
2023-03-27T07:59:01.604Z,4.65
2023-03-27T08:01:30.461Z,5.95
2023-03-27T08:03:59.638Z,4.32
2023-03-27T08:06:28.142Z,5.53
2023-03-27T08:08:56.990Z,4.50
2023-03-27T08:11:31.082Z,7.53
2023-03-27T08:14:01.051Z,5.10
2023-03-27T08:16:30.077Z,8.77
2023-03-27T08:19:00.757Z,5.35
2023-03-27T08:21:31.739Z,9.40
2023-03-27T08:24:00.579Z,7.43
2023-03-27T08:26:34.790Z,4.88
2023-03-27T08:29:09.678Z,7.25
2023-03-27T08:34:07.411Z,4.18
2023-03-27T08:36:45.641Z,9.57
2023-03-27T08:39:14.833Z,5.88
2023-03-27T08:42:08.212Z,4.47
2023-03-27T08:44:41.024Z,3.92
2023-03-27T08:47:17.869Z,4.82
2023-03-27T08:49:59.202Z,5.22
2023-03-27T08:52:36.110Z,2.90
2023-03-27T08:55:14.205Z,4.82
2023-03-27T08:57:52.531Z,8.25
2023-03-27T09:00:32.371Z,3.63
2023-03-27T09:03:25.918Z,4.13
2023-03-27T09:05:59.011Z,3.95
2023-03-27T09:08:43.604Z,3.75
2023-03-27T09:11:27.863Z,4.75
2023-03-27T09:14:04.008Z,6.38
2023-03-27T09:16:36.702Z,4.47
2023-03-27T09:19:16.500Z,4.97
2023-03-27T09:21:49.736Z,4.47
2023-03-27T09:24:34.691Z,5.80
2023-03-27T09:27:26.547Z,3.67
2023-03-27T09:30:18.506Z,6.25
2023-03-27T09:32:56.525Z,8.37
2023-03-27T09:35:24.903Z,5.53
2023-03-27T09:37:58.402Z,7.13
2023-03-27T09:40:33.416Z,5.38
2023-03-27T09:43:09.280Z,3.88
2023-03-27T09:45:41.825Z,5.75
2023-03-27T09:48:17.918Z,8.80
2023-03-27T09:50:47.465Z,6.90
2023-03-27T09:53:39.752Z,5.97
2023-03-27T09:56:16.662Z,6.18
2023-03-27T09:58:49.987Z,7.60
2023-03-27T10:01:34.207Z,3.20
2023-03-27T10:04:18.277Z,5.50
2023-03-27T10:06:51.426Z,5.43
2023-03-27T10:09:35.430Z,5.28
2023-03-27T10:12:19.513Z,7.63
2023-03-27T10:14:52.601Z,3.53
2023-03-27T10:17:37.733Z,3.90
2023-03-27T10:20:17.153Z,8.30
2023-03-27T10:22:54.779Z,4.53
2023-03-27T10:25:32.027Z,5.60
2023-03-27T10:28:19.670Z,4.47
2023-03-27T10:31:10.952Z,5.35
2023-03-27T10:33:52.588Z,3.75
2023-03-27T10:36:49.332Z,7.90
2023-03-27T10:39:21.389Z,3.63
2023-03-27T10:41:57.552Z,6.18
2023-03-27T10:44:28.441Z,3.55
2023-03-27T10:46:59.224Z,2.90
2023-03-27T10:49:37.467Z,2.60
2023-03-27T10:52:19.200Z,4.28
2023-03-27T10:55:34.015Z,5.10
2023-03-27T10:58:06.601Z,5.10
2023-03-27T11:00:43.427Z,4.15
2023-03-27T11:03:17.933Z,8.30
2023-03-27T11:05:53.652Z,5.80
2023-03-27T11:08:39.093Z,6.07
2023-03-27T11:11:14.565Z,4.07
2023-03-27T11:13:49.476Z,6.03
2023-03-27T11:16:22.878Z,5.22
2023-03-27T11:19:28.177Z,5.63
2023-03-27T11:22:18.403Z,4.88
2023-03-27T11:24:56.921Z,6.22
2023-03-27T11:27:30.479Z,7.20
2023-03-27T11:30:09.014Z,5.68
2023-03-27T11:32:54.857Z,3.83
2023-03-27T11:35:25.689Z,5.40
2023-03-27T11:38:15.906Z,6.20
2023-03-27T11:40:48.301Z,3.03
2023-03-27T11:43:19.016Z,6.65
2023-03-27T11:45:58.586Z,5.05
2023-03-27T11:48:57.083Z,3.72
2023-03-27T11:51:38.092Z,5.85
2023-03-27T11:54:19.188Z,5.53
2023-03-27T11:56:57.916Z,7.63
2023-03-27T12:02:57.622Z,6.40
2023-03-27T12:05:38.414Z,3.80
2023-03-27T12:08:13.519Z,9.13
2023-03-27T12:10:50.474Z,4.93
2023-03-27T12:14:01.874Z,3.85
2023-03-27T12:17:00.757Z,3.75
2023-03-27T12:20:06.919Z,4.45
2023-03-27T12:22:51.716Z,3.65
2023-03-27T12:25:50.338Z,5.40
2023-03-27T12:28:58.861Z,3.17
2023-03-27T12:32:02.334Z,4.47
2023-03-27T12:37:06.142Z,6.28
2023-03-27T12:39:46.881Z,3.72
2023-03-27T12:42:16.057Z,9.82
2023-03-27T12:45:07.247Z,9.93
2023-03-27T12:47:35.156Z,6.72
2023-03-27T12:50:20.123Z,3.03
2023-03-27T12:52:53.359Z,2.65
2023-03-27T12:55:33.329Z,3.38
2023-03-27T12:58:04.175Z,3.83
2023-03-27T13:01:12.328Z,1.58
2023-03-27T13:04:10.782Z,2.88
2023-03-27T13:06:50.844Z,2.70
2023-03-27T13:09:49.936Z,3.55
2023-03-27T13:12:34.288Z,3.88
2023-03-27T13:15:29.061Z,3.35
2023-03-27T13:18:19.625Z,2.25
2023-03-27T13:20:58.360Z,3.90
2023-03-27T13:23:42.308Z,5.07
2023-03-27T13:26:31.786Z,2.88
2023-03-27T13:29:02.770Z,1.80
2023-03-27T13:31:59.173Z,4.13
2023-03-27T13:34:39.786Z,4.40
2023-03-27T13:40:20.498Z,2.00
2023-03-27T13:42:53.535Z,4.45
2023-03-27T13:45:26.024Z,1.85
2023-03-27T13:49:04.749Z,2.13
2023-03-27T13:52:09.147Z,2.72
2023-03-27T13:55:10.571Z,4.57
2023-03-27T13:58:12.815Z,1.75
2023-03-27T14:01:01.852Z,2.65
2023-03-27T14:03:52.948Z,4.13
2023-03-27T14:07:00.851Z,2.85
2023-03-27T14:09:46.415Z,1.60
2023-03-27T14:12:25.236Z,1.30
2023-03-27T14:15:21.967Z,3.03
2023-03-27T14:18:31.754Z,4.90
2023-03-27T14:21:01.770Z,5.05
2023-03-27T14:23:46.628Z,4.03
2023-03-27T14:26:34.283Z,2.00
2023-03-27T14:29:03.903Z,1.83
2023-03-27T14:31:49.448Z,2.17
2023-03-27T14:34:47.242Z,2.75
2023-03-27T14:37:37.599Z,3.22
2023-03-27T14:40:23.165Z,3.30
2023-03-27T14:42:57.041Z,2.95
2023-03-27T14:45:27.963Z,5.82
2023-03-27T14:48:00.781Z,4.25
2023-03-27T14:50:38.799Z,2.33
2023-03-27T14:53:12.171Z,5.68
2023-03-27T14:56:24.964Z,5.45
2023-03-27T14:59:14.212Z,5.43
2023-03-27T15:02:00.123Z,3.00
2023-03-27T15:04:31.452Z,2.95
2023-03-27T15:07:18.934Z,4.47
2023-03-27T15:10:12.558Z,4.35
2023-03-27T15:13:11.298Z,2.97
2023-03-27T15:15:50.224Z,3.83
2023-03-27T15:18:24.814Z,3.58
2023-03-27T15:20:55.026Z,3.78
2023-03-27T15:23:28.460Z,2.67
2023-03-27T15:26:01.892Z,4.65
2023-03-27T15:28:36.702Z,4.75
2023-03-27T15:31:07.121Z,4.43
2023-03-27T15:33:41.004Z,3.42
2023-03-27T15:36:28.526Z,6.90
2023-03-27T15:39:00.478Z,1.92
2023-03-27T15:41:43.055Z,6.93
2023-03-27T15:44:17.359Z,5.28
2023-03-27T15:46:50.733Z,6.50
2023-03-27T15:49:25.020Z,4.63
2023-03-27T15:51:53.045Z,6.25
2023-03-27T15:54:27.795Z,2.90
2023-03-27T15:57:09.644Z,2.58
2023-03-27T15:59:51.187Z,3.17
2023-03-27T16:02:25.355Z,3.03
2023-03-27T16:04:55.795Z,3.28
2023-03-27T16:07:27.414Z,2.88
2023-03-27T16:09:57.371Z,3.40
2023-03-27T16:12:32.222Z,2.80
2023-03-27T16:15:05.735Z,1.83
2023-03-27T16:17:45.129Z,1.70
2023-03-27T16:20:40.229Z,2.30
2023-03-27T16:23:08.706Z,1.77
2023-03-27T16:25:37.454Z,2.22
2023-03-27T16:28:09.830Z,2.63
2023-03-27T16:30:41.454Z,3.88
2023-03-27T16:33:16.762Z,4.38
2023-03-27T16:35:46.065Z,5.68
2023-03-27T16:38:14.447Z,4.13
2023-03-27T16:40:43.244Z,4.45
2023-03-27T16:43:11.500Z,3.95
2023-03-27T16:45:39.742Z,5.53
2023-03-27T16:48:08.259Z,4.75
2023-03-27T16:50:37.823Z,4.63
2023-03-27T16:53:05.708Z,1.63
2023-03-27T16:55:33.644Z,4.20
2023-03-27T16:58:01.603Z,3.25
2023-03-27T17:00:29.541Z,4.05
2023-03-27T17:02:57.364Z,5.00
2023-03-27T17:05:25.756Z,5.47
2023-03-27T17:07:55.084Z,4.88
2023-03-27T17:10:22.897Z,3.47
2023-03-27T17:12:51.138Z,3.85
2023-03-27T17:15:19.057Z,2.97
2023-03-27T17:17:46.981Z,5.55
2023-03-27T17:20:14.867Z,7.13
2023-03-27T17:22:42.807Z,5.93
2023-03-27T17:25:12.799Z,6.15
2023-03-27T17:27:40.628Z,3.22
2023-03-27T17:30:09.664Z,4.93
2023-03-27T17:32:37.491Z,5.70
2023-03-27T17:35:06.373Z,7.43
2023-03-27T17:37:35.635Z,4.32
2023-03-27T17:40:09.436Z,6.10
2023-03-27T17:42:38.754Z,8.55
2023-03-27T17:45:07.532Z,5.70
2023-03-27T17:47:35.697Z,3.78
2023-03-27T17:50:03.556Z,2.75
2023-03-27T17:52:32.960Z,8.45
2023-03-27T17:55:00.921Z,3.58
2023-03-27T17:57:29.564Z,2.97
2023-03-27T17:59:58.842Z,3.67
2023-03-27T18:02:26.853Z,4.88
2023-03-27T18:04:54.727Z,2.97
2023-03-27T18:07:23.710Z,3.55
2023-03-27T18:09:51.672Z,4.78
2023-03-27T18:12:19.859Z,6.90
2023-03-27T18:14:47.595Z,3.35
2023-03-27T18:17:20.837Z,5.32
2023-03-27T18:19:48.935Z,3.90
2023-03-27T18:22:17.609Z,5.97
2023-03-27T18:24:45.579Z,5.15
2023-03-27T18:27:13.480Z,3.63
2023-03-27T18:29:41.543Z,4.75
2023-03-27T18:32:09.895Z,5.25
2023-03-27T18:34:39.096Z,5.90
2023-03-27T18:37:07.021Z,3.20
2023-03-27T18:39:37.426Z,4.90
2023-03-27T18:42:05.995Z,4.95
2023-03-27T18:44:34.373Z,7.32
2023-03-27T18:47:02.269Z,5.22
2023-03-27T18:49:30.651Z,5.68
2023-03-27T18:51:59.911Z,6.03
2023-03-27T18:54:28.174Z,2.38
2023-03-27T18:56:56.132Z,3.28
2023-03-27T18:59:24.172Z,4.53
2023-03-27T19:01:52.043Z,6.00
2023-03-27T19:04:19.973Z,4.70
2023-03-27T19:06:47.943Z,6.68
2023-03-27T19:09:17.873Z,3.92
2023-03-27T19:11:47.077Z,3.13
2023-03-27T19:14:18.351Z,6.38
2023-03-27T19:17:06.174Z,1.70
2023-03-27T19:19:37.558Z,7.35
2023-03-27T19:22:28.951Z,5.93
2023-03-27T19:25:09.751Z,3.70
2023-03-27T19:27:39.417Z,4.63
2023-03-27T19:30:10.391Z,4.55
2023-03-27T19:32:39.680Z,4.93
2023-03-27T19:35:09.122Z,7.80
2023-03-27T19:37:38.010Z,3.13
2023-03-27T19:40:10.212Z,6.50
2023-03-27T19:42:38.493Z,2.85
2023-03-27T19:45:08.731Z,4.30
2023-03-27T19:47:37.015Z,5.30
2023-03-27T19:50:06.947Z,5.32
2023-03-27T19:52:57.337Z,6.22
2023-03-27T19:55:34.970Z,4.72
2023-03-27T19:58:02.812Z,4.18
2023-03-27T20:00:32.118Z,3.45
2023-03-27T20:03:00.174Z,5.28
2023-03-27T20:05:29.522Z,8.02
2023-03-27T20:07:57.512Z,7.15
2023-03-27T20:10:27.029Z,6.55
2023-03-27T20:12:56.424Z,4.22
2023-03-27T20:15:24.261Z,5.78
2023-03-27T20:17:52.189Z,4.63
2023-03-27T20:20:20.140Z,4.68
2023-03-27T20:22:57.013Z,5.95
2023-03-27T20:25:28.306Z,5.43
2023-03-27T20:27:57.573Z,4.93
2023-03-27T20:30:26.255Z,4.15
2023-03-27T20:32:54.487Z,5.57
2023-03-27T20:35:24.715Z,8.15
2023-03-27T20:37:57.668Z,6.00
2023-03-27T20:40:27.194Z,14.70
2023-03-27T20:43:03.243Z,5.07
2023-03-27T20:45:31.921Z,3.35
2023-03-27T20:48:04.076Z,3.20
2023-03-27T20:50:34.971Z,9.60
2023-03-27T20:53:04.150Z,4.60
2023-03-27T20:55:39.168Z,5.20
2023-03-27T20:58:10.888Z,4.75
2023-03-27T21:00:39.035Z,6.75
2023-03-27T21:03:07.111Z,7.13
2023-03-27T21:05:41.194Z,6.93
2023-03-27T21:08:14.220Z,8.55
2023-03-27T21:10:42.610Z,9.20
2023-03-27T21:13:12.472Z,6.60
2023-03-27T21:15:40.861Z,6.13
2023-03-27T21:18:09.504Z,5.70
2023-03-27T21:20:37.995Z,7.03
2023-03-27T21:23:06.417Z,6.53
2023-03-27T21:25:35.996Z,6.22
2023-03-27T21:28:07.270Z,6.30
2023-03-27T21:30:46.198Z,7.20
2023-03-27T21:33:16.829Z,6.32
2023-03-27T21:35:47.055Z,9.52
2023-03-27T21:38:16.737Z,8.27
2023-03-27T21:40:47.410Z,5.50
2023-03-27T21:43:15.674Z,6.82
2023-03-27T21:45:46.950Z,9.85
2023-03-27T21:48:15.143Z,7.60
2023-03-27T21:50:44.251Z,9.45
2023-03-27T21:53:13.543Z,7.82
2023-03-27T21:55:41.502Z,7.38
2023-03-27T21:58:09.641Z,5.65
2023-03-27T22:00:37.853Z,8.35
2023-03-27T22:03:07.232Z,10.48
2023-03-27T22:05:38.684Z,10.05
2023-03-27T22:08:07.489Z,7.88
2023-03-27T22:10:36.125Z,6.65
2023-03-27T22:13:04.531Z,8.98
2023-03-27T22:15:32.777Z,5.45
2023-03-27T22:18:01.173Z,6.60
2023-03-27T22:20:30.759Z,4.57
2023-03-27T22:22:58.724Z,7.32
2023-03-27T22:25:27.014Z,4.70
2023-03-27T22:27:54.866Z,7.28
2023-03-27T22:30:22.783Z,4.38
2023-03-27T22:32:51.071Z,9.13
2023-03-27T22:35:19.348Z,5.90
2023-03-27T22:37:48.691Z,7.18
2023-03-27T22:40:16.777Z,4.65
2023-03-27T22:42:44.643Z,8.02
2023-03-27T22:45:13.308Z,11.82
2023-03-27T22:47:41.229Z,9.98
2023-03-27T22:50:09.863Z,8.80
2023-03-27T22:52:37.750Z,13.93
2023-03-27T22:55:08.307Z,6.68
2023-03-27T22:57:37.738Z,7.90
2023-03-27T23:00:07.004Z,8.20
2023-03-27T23:02:34.976Z,7.22
2023-03-27T23:05:04.122Z,8.52
2023-03-27T23:07:32.586Z,11.82
2023-03-27T23:10:00.767Z,7.45
2023-03-27T23:12:29.980Z,7.25
2023-03-27T23:14:57.882Z,13.77
2023-03-27T23:17:25.866Z,8.05
2023-03-27T23:19:53.805Z,6.03
2023-03-27T23:22:21.712Z,10.02
2023-03-27T23:24:49.661Z,11.60
2023-03-27T23:27:17.699Z,8.77
2023-03-27T23:29:48.000Z,6.03
2023-03-27T23:32:15.947Z,6.35
2023-03-27T23:34:43.894Z,9.45
2023-03-27T23:37:11.858Z,6.15
2023-03-27T23:39:39.839Z,8.32
2023-03-27T23:42:07.822Z,6.85
2023-03-27T23:44:35.968Z,10.60
2023-03-27T23:47:06.008Z,5.72
2023-03-27T23:49:33.984Z,4.97
2023-03-27T23:52:01.960Z,11.77
2023-03-27T23:54:30.076Z,8.93
2023-03-27T23:56:58.142Z,13.20
2023-03-27T23:59:26.119Z,12.80
